Flight Track Log - Related Links

Times and Time Zones

All times are in EDT time to prevent confusion due to time zone crossing. See the TCF3480 flight status page for this flight to view local times or setup timezone preferences in your user account.

Time Position Orientation Groundspeed Altitude Reporting Facility
EDT Latitude Longitude Course Direction KTS MPH feet Rate Location/Type
Sat 03:30:35 PM 35.0428 -106.5744 72° East 168 193 6,400  Level Albuquerque Center
Sat 03:31:36 PM 34.9894 -106.5622 169° South 211 243 8,100 1,448 Climbing Albuquerque Center
Sat 03:32:02 PM 34.9592 -106.5628 181° South 220 253 8,500 2,000 Climbing Albuquerque Center
Sat 03:32:36 PM 34.9317 -106.5253 132° Southeast 277 319 10,100 2,754 Climbing Albuquerque Center
Sat 03:33:00 PM 35.3613 -106.4041 80° East  Level FlightAware Approximate
Sat 03:33:03 PM 34.9367 -106.4878 81° East 257 296 11,300  Level Albuquerque Center
Sat 03:34:00 PM 35.3900 -106.2784 72° East  Level FlightAware Approximate
Sat 03:34:05 PM 34.9736 -106.4125 59° Northeast 258 297 14,200  Level Albuquerque Center
Sat 03:35:00 PM 35.4228 -106.1538 72° East  Level FlightAware Approximate
Sat 03:35:07 PM 35.0161 -106.3358 56° Northeast 269 310 16,800  Level Albuquerque Center
Sat 03:36:08 PM 35.0592 -106.2556 57° Northeast 280 322 18,400 2,049 Climbing Albuquerque Center
Sat 03:37:10 PM 35.1094 -106.1619 57° Northeast 290 334 21,000 1,463 Climbing Albuquerque Center
Sat 03:38:11 PM 35.1528 -106.0808 57° Northeast 321 369 21,400 1,073 Climbing Albuquerque Center
Sat 03:39:13 PM 35.2175 -105.9617 56° Northeast 355 409 23,200 1,659 Climbing Albuquerque Center
Sat 03:40:14 PM 35.2736 -105.8550 57° Northeast 368 423 24,800 1,463 Climbing Albuquerque Center
Sat 03:41:16 PM 35.3353 -105.7481 55° Northeast 377 434 26,200 1,355 Climbing Albuquerque Center
Sat 03:42:18 PM 35.3922 -105.6378 58° Northeast 380 437 27,600 1,317 Climbing Albuquerque Center
Sat 03:43:19 PM 35.4511 -105.5278 57° Northeast 381 438 28,900 1,171 Climbing Albuquerque Center
Sat 03:44:21 PM 35.5086 -105.4150 58° Northeast 383 441 30,000 976 Climbing Albuquerque Center
Sat 03:45:22 PM 35.5711 -105.2969 57° Northeast 398 458 30,900 829 Climbing Albuquerque Center
Sat 03:46:24 PM 35.6317 -105.1769 58° Northeast 406 467 31,700 976 Climbing Albuquerque Center
Sat 03:47:25 PM 35.6922 -105.0539 59° Northeast 413 475 32,900 634 Climbing Albuquerque Center
Sat 03:48:27 PM 35.7511 -104.9322 59° Northeast 411 473 33,000 48 Climbing Albuquerque Center
Sat 03:49:29 PM 35.8092 -104.8117 59° Northeast 406 467 33,000  Level Albuquerque Center
Sat 03:50:30 PM 35.8689 -104.6875 59° Northeast 411 473 33,000  Level Albuquerque Center
Sat 03:51:32 PM 35.9383 -104.5436 59° Northeast 412 474 33,000  Level Albuquerque Center
Sat 03:52:33 PM 35.9817 -104.4122 68° East 415 478 33,000  Level Albuquerque Center
Sat 03:53:35 PM 36.0197 -104.2742 71° East 419 482 33,000  Level Albuquerque Center
Sat 03:54:37 PM 36.0578 -104.1375 71° East 418 481 33,000  Level Albuquerque Center
Sat 03:55:38 PM 36.1094 -104.0083 64° Northeast 413 475 33,000  Level Albuquerque Center
Sat 03:56:40 PM 36.1647 -103.8800 62° Northeast 416 479 33,000  Level Albuquerque Center
Sat 03:57:41 PM 36.2183 -103.7511 63° Northeast 417 480 33,000  Level Albuquerque Center
Sat 03:58:43 PM 36.2731 -103.6200 63° Northeast 421 484 33,000  Level Albuquerque Center
Sat 03:59:45 PM 36.3275 -103.4906 62° Northeast 420 483 33,000  Level Albuquerque Center
Sat 04:00:46 PM 36.3808 -103.3606 63° Northeast 419 482 33,000  Level Albuquerque Center
Sat 04:01:48 PM 36.4347 -103.2297 63° Northeast 421 484 33,000  Level Albuquerque Center
Sat 04:02:49 PM 36.4892 -103.1008 62° Northeast 420 483 33,000  Level Albuquerque Center
Sat 04:03:51 PM 36.5508 -102.9483 63° Northeast 420 483 33,000  Level Albuquerque Center
Sat 04:04:53 PM 36.6036 -102.8169 63° Northeast 420 483 33,000  Level Albuquerque Center
Sat 04:05:54 PM 36.6544 -102.6928 63° Northeast 419 482 33,000  Level Albuquerque Center
Sat 04:06:56 PM 36.7044 -102.5681 63° Northeast 420 483 33,000  Level Albuquerque Center
Sat 04:07:57 PM 36.7614 -102.4247 64° Northeast 424 488 33,000  Level Albuquerque Center
Sat 04:08:59 PM 36.8136 -102.2953 63° Northeast 421 484 33,000  Level Albuquerque Center
Sat 04:10:00 PM 36.8703 -102.1539 63° Northeast 420 483 33,000  Level Albuquerque Center
Sat 04:11:02 PM 36.9206 -102.0294 63° Northeast 421 484 33,000  Level Albuquerque Center
Sat 04:12:04 PM 36.9781 -101.8822 64° Northeast 423 487 33,000  Level Albuquerque Center
Sat 04:13:05 PM 37.0278 -101.7542 64° Northeast 426 490 33,000  Level Albuquerque Center
Sat 04:14:07 PM 37.0864 -101.6092 63° Northeast 422 486 33,000  Level Albuquerque Center
Sat 04:15:08 PM 37.1353 -101.4825 64° Northeast 421 484 33,000  Level Albuquerque Center
Sat 04:15:36 PM 37.1589 -101.4186 65° Northeast 422 486 33,000  Level Kansas City Center
Sat 04:16:38 PM 37.2086 -101.2908 64° Northeast 425 489 33,000  Level Kansas City Center
Sat 04:17:39 PM 37.2653 -101.1456 64° Northeast 420 483 33,000  Level Kansas City Center
Sat 04:18:41 PM 37.3139 -101.0203 64° Northeast 419 482 33,000  Level Kansas City Center
Sat 04:19:42 PM 37.3694 -100.8731 65° Northeast 420 483 33,000  Level Kansas City Center
Sat 04:20:44 PM 37.4186 -100.7467 64° Northeast 423 487 33,000  Level Kansas City Center
Sat 04:21:46 PM 37.4747 -100.5994 64° Northeast 423 487 33,000  Level Kansas City Center
Sat 04:22:47 PM 37.5225 -100.4731 64° Northeast 423 487 33,000  Level Kansas City Center
Sat 04:23:49 PM 37.5786 -100.3233 65° Northeast 424 488 33,000  Level Kansas City Center
Sat 04:24:50 PM 37.6278 -100.1950 64° Northeast 426 490 33,000  Level Kansas City Center
Sat 04:25:52 PM 37.6847 -100.0442 64° Northeast 428 493 33,000  Level Kansas City Center
Sat 04:26:53 PM 37.7333 -99.9164 64° Northeast 424 488 33,000  Level Kansas City Center
Sat 04:27:55 PM 37.7797 -99.7869 66° East 424 488 33,000  Level Kansas City Center
Sat 04:28:57 PM 37.8358 -99.6364 65° Northeast 425 489 33,000  Level Kansas City Center
Sat 04:29:58 PM 37.8831 -99.5050 65° Northeast 428 493 33,000  Level Kansas City Center
Sat 04:31:00 PM 37.9369 -99.3572 65° Northeast 431 496 33,000  Level Kansas City Center
Sat 04:32:01 PM 37.9872 -99.2183 65° Northeast 433 498 33,000  Level Kansas City Center
Sat 04:33:03 PM 38.0381 -99.0775 65° Northeast 438 504 33,000  Level Kansas City Center
Sat 04:34:05 PM 38.0883 -98.9367 66° East 437 503 33,000  Level Kansas City Center
Sat 04:35:06 PM 38.1414 -98.7939 65° Northeast 443 510 33,000  Level Kansas City Center
Sat 04:36:08 PM 38.1919 -98.6517 66° East 442 509 33,000  Level Kansas City Center
Sat 04:37:10 PM 38.2428 -98.5083 66° East 443 510 33,000  Level Kansas City Center
Sat 04:38:11 PM 38.3047 -98.3317 66° East 451 519 33,000  Level Kansas City Center
Sat 04:39:13 PM 38.3558 -98.1858 66° East 449 517 33,000  Level Kansas City Center
Sat 04:40:15 PM 38.4067 -98.0400 66° East 448 516 33,000  Level Kansas City Center
Sat 04:41:17 PM 38.4581 -97.8931 66° East 450 518 33,000  Level Kansas City Center
Sat 04:42:18 PM 38.5094 -97.7456 66° East 451 519 33,000  Level Kansas City Center
Sat 04:43:20 PM 38.5606 -97.5978 66° East 453 521 33,000  Level Kansas City Center
Sat 04:44:22 PM 38.6108 -97.4508 66° East 450 518 33,000  Level Kansas City Center
Sat 04:45:24 PM 38.6603 -97.3042 67° East 449 517 33,000  Level Kansas City Center
Sat 04:46:25 PM 38.7100 -97.1578 66° East 449 517 33,000  Level Kansas City Center
Sat 04:47:27 PM 38.7694 -96.9833 66° East 446 513 33,000  Level Kansas City Center
Sat 04:48:29 PM 38.8178 -96.8356 67° East 447 514 33,000  Level Kansas City Center
Sat 04:49:30 PM 38.8686 -96.6875 66° East 452 520 33,000  Level Kansas City Center
Sat 04:50:32 PM 38.9189 -96.5403 66° East 451 519 33,000  Level Kansas City Center
Sat 04:51:34 PM 38.9661 -96.3922 68° East 456 525 33,000  Level Kansas City Center
Sat 04:52:35 PM 39.0206 -96.2208 68° East 464 534 33,000  Level Kansas City Center
Sat 04:53:37 PM 39.0692 -96.0750 67° East 463 533 33,000  Level Kansas City Center
Sat 04:54:39 PM 39.1253 -95.9011 67° East 469 540 33,000  Level Kansas City Center
Sat 04:55:40 PM 39.1744 -95.7508 67° East 475 547 33,000  Level Kansas City Center
Sat 04:56:42 PM 39.2300 -95.5767 68° East 470 541 33,000  Level Kansas City Center
Sat 04:57:44 PM 39.2797 -95.4194 68° East 472 543 33,000  Level Kansas City Center
Sat 04:58:46 PM 39.3303 -95.2644 67° East 469 540 33,000  Level Kansas City Center
Sat 04:59:47 PM 39.3875 -95.0964 66° East 473 544 33,000  Level Kansas City Center
Sat 05:00:49 PM 39.4383 -94.9456 66° East 475 547 33,000  Level Kansas City Center
Sat 05:01:51 PM 39.4892 -94.7950 66° East 474 545 33,000  Level Kansas City Center
Sat 05:02:52 PM 39.5469 -94.6197 67° East 474 545 33,000  Level Kansas City Center
Sat 05:03:54 PM 39.5964 -94.4700 67° East 473 544 33,000  Level Kansas City Center
Sat 05:04:56 PM 39.6547 -94.2928 67° East 477 549 33,000  Level Kansas City Center
Sat 05:05:58 PM 39.7036 -94.1431 67° East 472 543 33,000  Level Kansas City Center
Sat 05:06:59 PM 39.7533 -93.9922 67° East 474 545 33,000  Level Kansas City Center
Sat 05:08:01 PM 39.8125 -93.8097 67° East 479 551 33,000  Level Kansas City Center
Sat 05:09:02 PM 39.8633 -93.6422 68° East 484 557 33,000  Level Kansas City Center
Sat 05:10:04 PM 39.9164 -93.4844 66° East 484 557 33,000  Level Kansas City Center
Sat 05:11:06 PM 39.9672 -93.3258 67° East 482 555 33,000  Level Kansas City Center
Sat 05:12:07 PM 40.0172 -93.1658 68° East 481 554 33,000  Level Kansas City Center
Sat 05:13:09 PM 40.0714 -92.9886 68° East 483 556 33,000  Level Kansas City Center
Sat 05:14:10 PM 40.1203 -92.8328 68° East 484 557 33,000  Level Kansas City Center
Sat 05:15:12 PM 40.1764 -92.6497 68° East 484 557 33,000  Level Kansas City Center
Sat 05:16:14 PM 40.2222 -92.4919 69° East 484 557 33,000  Level Kansas City Center
Sat 05:17:15 PM 40.2756 -92.3328 66° East 489 563 33,000  Level Kansas City Center
Sat 05:18:17 PM 40.3347 -92.1353 68° East 491 565 33,000  Level Kansas City Center
Sat 05:19:19 PM 40.3839 -91.9708 69° East 490 564 33,000  Level Kansas City Center
Sat 05:20:20 PM 40.4336 -91.8058 68° East 491 565 33,000  Level Kansas City Center
Sat 05:21:22 PM 40.4828 -91.6406 69° East 490 564 33,000  Level Kansas City Center
Sat 05:22:22 PM 40.5331 -91.4722 68° East 497 572 33,000  Level Chicago Center
Sat 05:23:23 PM 40.5881 -91.3089 66° East 494 568 33,000  Level Chicago Center
Sat 05:24:24 PM 40.6419 -91.1497 66° East 495 570 33,000  Level Chicago Center
Sat 05:25:26 PM 40.7086 -90.9500 66° East 497 572 33,000  Level Chicago Center
Sat 05:26:27 PM 40.7661 -90.7831 66° East 500 575 33,000  Level Chicago Center
Sat 05:27:28 PM 40.8222 -90.6147 66° East 500 575 33,000  Level Chicago Center
Sat 05:28:30 PM 40.8764 -90.4483 67° East 495 570 33,000 -195 Level Chicago Center
Sat 05:29:31 PM 40.9325 -90.2800 66° East 497 572 32,600 -1,180 Descending Chicago Center
Sat 05:30:32 PM 40.9931 -90.1003 66° East 496 571 30,600 -1,951 Descending Chicago Center
Sat 05:31:34 PM 41.0442 -89.9456 66° East 490 564 28,600 -2,000 Descending Chicago Center
Sat 05:32:35 PM 41.0964 -89.7847 67° East 475 547 26,500 -1,951 Descending Chicago Center
Sat 05:33:37 PM 41.1467 -89.6308 67° East 460 529 24,600 -2,049 Descending Chicago Center
Sat 05:34:38 PM 41.2019 -89.4869 63° Northeast 443 510 22,300 -2,115 Descending Chicago Center
Sat 05:35:39 PM 41.2569 -89.3508 62° Northeast 425 489 20,300 -1,951 Descending Chicago Center
Sat 05:36:41 PM 41.3108 -89.2178 62° Northeast 411 473 18,300 -2,000 Descending Chicago Center
Sat 05:37:42 PM 41.3703 -89.0664 62° Northeast 392 451 16,200 -1,918 Descending Chicago Center
Sat 05:38:43 PM 41.4189 -88.9419 62° Northeast 383 441 14,400 -1,805 Descending Chicago Center
Sat 05:39:45 PM 41.4664 -88.8217 62° Northeast 367 422 12,500 -1,659 Descending Chicago Center
Sat 05:40:46 PM 41.5114 -88.7092 62° Northeast 347 399 11,000 -1,024 Descending Chicago Center
Sat 05:41:48 PM 41.5583 -88.5878 63° Northeast 363 418 10,400 -244 Descending Chicago Center
Sat 05:42:49 PM 41.6056 -88.4658 63° Northeast 367 422 10,500 -146 Climbing Chicago Center
Sat 05:43:51 PM 41.6669 -88.3664 50° Northeast 338 389 10,100 -585 Descending Chicago Center
Sat 05:44:52 PM 41.7186 -88.2786 52° Northeast 303 349 9,300 -1,073 Descending Chicago Center
Sat 05:45:54 PM 41.7672 -88.1933 53° Northeast 289 333 7,900 -1,122 Descending Chicago Center
Sat 05:46:55 PM 41.8236 -88.0978 52° Northeast 275 316 7,000 -439 Descending Chicago Center
Sat 05:47:57 PM 41.8628 -88.0264 54° Northeast 251 289 7,000  Level Chicago Center
Sat 05:48:41 PM 41.8833 -87.9667 65° Northeast 216 249 7,000  Level Chicago TRACON
Sat 05:49:42 PM 41.8833 -87.9000 90° East 220 253 7,000  Level Chicago TRACON
Sat 05:50:36 PM 41.8833 -87.8167 90° East 221 254 7,000 -684 Level Chicago TRACON
Sat 05:51:36 PM 41.8833 -87.7333 90° East 214 246 5,700 -1,300 Descending Chicago TRACON
Sat 05:52:36 PM 41.8833 -87.6667 90° East 208 239 4,400 -850 Descending Chicago TRACON
Sat 05:53:36 PM 41.8833 -87.5833 90° East 211 243 4,000 -200 Descending Chicago TRACON
Sat 05:54:36 PM 41.8833 -87.5000 90° East 212 244 4,000  Level Chicago TRACON
Sat 05:55:36 PM 41.8833 -87.4167 90° East 210 242 4,000  Level Chicago TRACON
Sat 05:56:30 PM 41.9000 -87.3833 56° Northeast 207 238 4,000  Level Chicago TRACON
Sat 05:57:30 PM 41.9333 -87.4000 340° North 156 180 4,000  Level Chicago TRACON
Sat 05:58:30 PM 41.9500 -87.4667 289° West 156 180 4,000  Level Chicago TRACON
Sat 05:59:30 PM 41.9667 -87.5167 294° West 160 184 4,000  Level Chicago TRACON
Sat 06:00:31 PM 41.9667 -87.5667 270° West 162 186 4,000  Level Chicago TRACON
Sat 06:01:31 PM 41.9667 -87.6333 270° West 166 191 4,000 -263 Level Chicago TRACON
Sat 06:02:25 PM 41.9667 -87.6833 270° West 167 192 3,500 -737 Descending Chicago TRACON
Sat 06:03:25 PM 41.9667 -87.7500 270° West 164 189 2,600 -900 Descending Chicago TRACON

Login

Don't have an account? Register now (free) for customized features, flight alerts, and more!